createdAt,value
2015-10-21T00:00:10.917Z,-6.65
2015-10-21T00:00:24.135Z,-6.72
2015-10-21T00:00:37.339Z,-6.63
2015-10-21T00:00:50.576Z,-6.66
2015-10-21T00:01:03.795Z,-6.6
2015-10-21T00:01:17.013Z,-6.54
2015-10-21T00:01:30.217Z,-6.53
2015-10-21T00:01:43.435Z,-6.54
2015-10-21T00:01:56.641Z,-6.56
2015-10-21T00:02:09.845Z,-6.6
2015-10-21T00:02:23.048Z,-6.5
2015-10-21T00:02:36.251Z,-6.5
2015-10-21T00:02:49.503Z,-6.52
2015-10-21T00:03:02.690Z,-6.44
2015-10-21T00:03:15.893Z,-6.46
2015-10-21T00:03:29.097Z,-6.49
2015-10-21T00:03:42.331Z,-6.42
2015-10-21T00:03:55.553Z,-6.49
2015-10-21T00:04:08.756Z,-6.5
2015-10-21T00:04:21.959Z,-6.54
2015-10-21T00:04:35.178Z,-6.44
2015-10-21T00:04:48.399Z,-6.46
2015-10-21T00:05:01.587Z,-6.36
2015-10-21T00:05:14.790Z,-6.49
2015-10-21T00:05:28.009Z,-6.36
2015-10-21T00:05:41.228Z,-6.35
2015-10-21T00:05:54.433Z,-6.35
2015-10-21T00:06:07.620Z,-6.31
2015-10-21T00:06:20.839Z,-6.18
2015-10-21T00:06:34.058Z,-6.21
2015-10-21T00:06:47.261Z,-6.2
2015-10-21T00:07:00.468Z,-6.13
2015-10-21T00:07:13.515Z,-6.11
2015-10-21T00:07:26.749Z,-6.15
2015-10-21T00:07:39.952Z,-6.1
2015-10-21T00:07:53.157Z,-6.14
2015-10-21T00:08:06.345Z,-6.15
2015-10-21T00:08:19.564Z,-6.08
2015-10-21T00:08:32.782Z,-6.14
2015-10-21T00:08:45.986Z,-6.13
2015-10-21T00:08:59.192Z,-6.1
2015-10-21T00:09:12.395Z,-5.99
2015-10-21T00:09:25.629Z,-6.02
2015-10-21T00:09:38.832Z,-5.99
2015-10-21T00:09:52.054Z,-6
2015-10-21T00:10:05.242Z,-6
2015-10-21T00:10:18.460Z,-6.02
2015-10-21T00:10:31.663Z,-5.97
2015-10-21T00:10:44.867Z,-5.96
2015-10-21T00:10:58.072Z,-6.02
2015-10-21T00:11:11.306Z,-6.05
2015-10-21T00:11:24.509Z,-5.96
2015-10-21T00:11:37.712Z,-6.05
2015-10-21T00:11:50.915Z,-6
2015-10-21T00:12:04.122Z,-6.07
2015-10-21T00:12:17.340Z,-6.05
2015-10-21T00:12:30.543Z,-6.02
2015-10-21T00:12:43.731Z,-6.14
2015-10-21T00:12:56.953Z,-6.13
2015-10-21T00:13:10.171Z,-6.03
2015-10-21T00:13:23.359Z,-6.13
2015-10-21T00:13:36.562Z,-6.15
2015-10-21T00:13:49.765Z,-6.11
2015-10-21T00:14:02.987Z,-6.14
2015-10-21T00:14:16.190Z,-6.17
2015-10-21T00:14:29.409Z,-6.08
2015-10-21T00:14:42.612Z,-6.07
2015-10-21T00:14:55.833Z,-6.13
2015-10-21T00:15:09.051Z,-6.1
2015-10-21T00:15:22.255Z,-6
2015-10-21T00:15:35.458Z,-6.07
2015-10-21T00:15:48.692Z,-6.02
2015-10-21T00:16:01.898Z,-6.03
2015-10-21T00:16:15.117Z,-6
2015-10-21T00:16:28.304Z,-6.02
2015-10-21T00:16:41.523Z,-6.07
2015-10-21T00:16:54.758Z,-6
2015-10-21T00:17:07.947Z,-6.1
2015-10-21T00:17:21.150Z,-6.1
2015-10-21T00:17:34.353Z,-6.1
2015-10-21T00:17:47.588Z,-5.96
2015-10-21T00:18:00.779Z,-5.97
2015-10-21T00:18:13.982Z,-5.99
2015-10-21T00:18:27.185Z,-5.96
2015-10-21T00:18:40.404Z,-6
2015-10-21T00:18:53.654Z,-5.95
2015-10-21T00:19:06.844Z,-5.96
2015-10-21T00:19:20.047Z,-6.1
2015-10-21T00:19:33.266Z,-5.99
2015-10-21T00:19:46.484Z,-6.02
2015-10-21T00:19:59.690Z,-6.02
2015-10-21T00:20:12.878Z,-6.11
2015-10-21T00:20:26.097Z,-6.08
2015-10-21T00:20:39.315Z,-6.13
2015-10-21T00:20:52.519Z,-6.1
2015-10-21T00:21:05.724Z,-6.15
2015-10-21T00:21:18.927Z,-6.11
2015-10-21T00:21:32.146Z,-6.13
2015-10-21T00:21:45.333Z,-6.15
2015-10-21T00:21:58.536Z,-6.17
2015-10-21T00:22:11.727Z,-6.1
2015-10-21T00:22:24.961Z,-6.17
2015-10-21T00:22:38.164Z,-6.13
2015-10-21T00:22:51.399Z,-6.13
2015-10-21T00:23:04.589Z,-6.15
2015-10-21T00:23:17.808Z,-6.23
2015-10-21T00:23:31.027Z,-6.26
2015-10-21T00:23:44.230Z,-6.13
2015-10-21T00:23:57.480Z,-6.26
2015-10-21T00:24:10.686Z,-6.26
2015-10-21T00:24:23.920Z,-6.28
2015-10-21T00:24:37.123Z,-6.28
2015-10-21T00:24:50.326Z,-6.28
2015-10-21T00:25:03.547Z,-6.26
2015-10-21T00:25:16.766Z,-6.26
2015-10-21T00:25:29.969Z,-6.24
2015-10-21T00:25:43.172Z,-6.23
2015-10-21T00:25:56.375Z,-6.26
2015-10-21T00:26:09.613Z,-6.26
2015-10-21T00:26:22.816Z,-6.24
2015-10-21T00:26:36.019Z,-6.29
2015-10-21T00:26:49.222Z,-6.31
2015-10-21T00:27:02.444Z,-6.31
2015-10-21T00:27:15.678Z,-6.29
2015-10-21T00:27:28.881Z,-6.34
2015-10-21T00:27:42.084Z,-6.26
2015-10-21T00:27:55.288Z,-6.31
2015-10-21T00:28:08.524Z,-6.31
2015-10-21T00:28:21.727Z,-6.38
2015-10-21T00:28:34.930Z,-6.31
2015-10-21T00:28:48.149Z,-6.32
2015-10-21T00:29:01.368Z,-6.23
2015-10-21T00:29:14.574Z,-6.24
2015-10-21T00:29:27.777Z,-6.29
2015-10-21T00:29:40.980Z,-6.26
2015-10-21T00:29:54.199Z,-6.28
2015-10-21T00:30:07.405Z,-6.23
2015-10-21T00:30:20.608Z,-6.24
2015-10-21T00:30:33.811Z,-6.24
2015-10-21T00:30:47.030Z,-6.21
2015-10-21T00:31:00.264Z,-6.14
2015-10-21T00:31:13.470Z,-6.14
2015-10-21T00:31:26.674Z,-6.03
2015-10-21T00:31:39.877Z,-6.03
2015-10-21T00:31:53.111Z,-6.07
2015-10-21T00:32:06.316Z,-5.96
2015-10-21T00:32:19.504Z,-6.02
2015-10-21T00:32:32.691Z,-6.07
2015-10-21T00:32:45.894Z,-5.99
2015-10-21T00:32:59.082Z,-6.03
2015-10-21T00:33:12.272Z,-6.05
2015-10-21T00:33:25.475Z,-5.96
2015-10-21T00:33:38.694Z,-6
2015-10-21T00:33:51.913Z,-5.96
2015-10-21T00:34:05.100Z,-6
2015-10-21T00:34:18.307Z,-5.95
2015-10-21T00:34:31.510Z,-6
2015-10-21T00:34:44.728Z,-6
2015-10-21T00:34:57.932Z,-6
2015-10-21T00:35:11.122Z,-5.9
2015-10-21T00:35:24.356Z,-5.9
2015-10-21T00:35:37.575Z,-5.95
2015-10-21T00:35:50.794Z,-6.05
2015-10-21T00:36:03.981Z,-5.93
2015-10-21T00:36:17.188Z,-5.95
2015-10-21T00:36:30.422Z,-5.99
2015-10-21T00:36:43.625Z,-5.93
2015-10-21T00:36:56.828Z,-5.86
2015-10-21T00:37:10.049Z,-5.86
2015-10-21T00:37:23.268Z,-5.81
2015-10-21T00:37:36.471Z,-5.86
2015-10-21T00:37:49.674Z,-5.84
2015-10-21T00:38:02.877Z,-5.86
2015-10-21T00:38:16.083Z,-5.96
2015-10-21T00:38:29.302Z,-5.89
2015-10-21T00:38:42.505Z,-5.97
2015-10-21T00:38:55.708Z,-5.85
2015-10-21T00:39:08.911Z,-5.86
2015-10-21T00:39:22.132Z,-5.9
2015-10-21T00:39:35.320Z,-5.95
2015-10-21T00:39:48.523Z,-6.02
2015-10-21T00:40:01.726Z,-5.99
2015-10-21T00:40:14.948Z,-6.07
2015-10-21T00:40:28.151Z,-6
2015-10-21T00:40:41.354Z,-6.02
2015-10-21T00:40:54.541Z,-6.03
2015-10-21T00:41:07.760Z,-6.02
2015-10-21T00:41:20.982Z,-6.05
2015-10-21T00:41:34.185Z,-6.03
2015-10-21T00:41:47.388Z,-6.14
2015-10-21T00:42:00.591Z,-6.03
2015-10-21T00:42:13.813Z,-6.02
2015-10-21T00:42:27.016Z,-6
2015-10-21T00:42:40.204Z,-6
2015-10-21T00:42:53.407Z,-6.05
2015-10-21T00:43:06.641Z,-6.05
2015-10-21T00:43:19.831Z,-6.05
2015-10-21T00:43:33.034Z,-6.14
2015-10-21T00:43:46.237Z,-6.11
2015-10-21T00:43:59.456Z,-6.11
2015-10-21T00:44:12.674Z,-6.17
2015-10-21T00:44:25.880Z,-6.13
2015-10-21T00:44:39.084Z,-6.11
2015-10-21T00:44:52.302Z,-6.11
2015-10-21T00:45:05.521Z,-6.14
2015-10-21T00:45:18.726Z,-6.11
2015-10-21T00:45:31.914Z,-6.07
2015-10-21T00:45:45.132Z,-6
2015-10-21T00:45:58.351Z,-6.02
2015-10-21T00:46:11.554Z,-6.02
2015-10-21T00:46:24.776Z,-5.96
2015-10-21T00:46:37.964Z,-5.93
2015-10-21T00:46:51.198Z,-6
2015-10-21T00:47:04.401Z,-6
2015-10-21T00:47:17.607Z,-5.99
2015-10-21T00:47:30.810Z,-5.86
2015-10-21T00:47:44.029Z,-5.9
2015-10-21T00:47:57.232Z,-5.92
2015-10-21T00:48:10.435Z,-5.9
2015-10-21T00:48:23.641Z,-5.93
2015-10-21T00:48:36.845Z,-5.99
2015-10-21T00:48:49.923Z,-5.99
2015-10-21T00:49:03.110Z,-5.99
2015-10-21T00:49:16.313Z,-5.92
2015-10-21T00:49:29.519Z,-5.96
2015-10-21T00:49:42.754Z,-5.93
2015-10-21T00:49:55.941Z,-5.96
2015-10-21T00:50:09.144Z,-5.97
2015-10-21T00:50:22.350Z,-5.96
2015-10-21T00:50:35.584Z,-5.97
2015-10-21T00:50:48.787Z,-5.89
2015-10-21T00:51:01.990Z,-5.97
2015-10-21T00:51:15.178Z,-5.93
2015-10-21T00:51:28.415Z,-5.86
2015-10-21T00:51:41.634Z,-5.93
2015-10-21T00:51:54.837Z,-5.96
2015-10-21T00:52:08.024Z,-5.89
2015-10-21T00:52:21.245Z,-5.84
2015-10-21T00:52:34.464Z,-5.92
2015-10-21T00:52:47.651Z,-5.85
2015-10-21T00:53:00.855Z,-5.9
2015-10-21T00:53:14.058Z,-5.97
2015-10-21T00:53:27.296Z,-5.82
2015-10-21T00:53:40.499Z,-5.95
2015-10-21T00:53:53.702Z,-5.84
2015-10-21T00:54:06.905Z,-5.86
2015-10-21T00:54:20.124Z,-5.89
2015-10-21T00:54:33.361Z,-5.86
2015-10-21T00:54:46.564Z,-5.93
2015-10-21T00:54:59.767Z,-5.93
2015-10-21T00:55:12.986Z,-5.81
2015-10-21T00:55:26.207Z,-5.74
2015-10-21T00:55:39.410Z,-5.79
2015-10-21T00:55:52.614Z,-5.72
2015-10-21T00:56:05.832Z,-5.68
2015-10-21T00:56:19.051Z,-5.72
2015-10-21T00:56:32.242Z,-5.56
2015-10-21T00:56:45.304Z,-5.57
2015-10-21T00:56:58.492Z,-5.61
2015-10-21T00:57:11.726Z,-5.64
2015-10-21T00:57:24.994Z,-5.66
2015-10-21T00:57:38.181Z,-5.56
2015-10-21T00:57:51.384Z,-5.53
2015-10-21T00:58:04.603Z,-5.57
2015-10-21T00:58:17.822Z,-5.56
2015-10-21T00:58:31.028Z,-5.67
2015-10-21T00:58:44.231Z,-5.58
2015-10-21T00:58:57.450Z,-5.53
2015-10-21T00:59:10.653Z,-5.54
2015-10-21T00:59:23.856Z,-5.56
2015-10-21T00:59:37.046Z,-5.57
2015-10-21T00:59:50.281Z,-5.53
2015-10-21T01:00:03.515Z,-5.56
2015-10-21T01:00:16.718Z,-5.49
2015-10-21T01:00:29.924Z,-5.57
2015-10-21T01:00:43.128Z,-5.54
2015-10-21T01:00:56.346Z,-5.57
2015-10-21T01:01:09.549Z,-5.47
2015-10-21T01:01:22.753Z,-5.43
2015-10-21T01:01:35.959Z,-5.49
2015-10-21T01:01:49.162Z,-5.51
2015-10-21T01:02:02.381Z,-5.54
2015-10-21T01:02:15.584Z,-5.43
2015-10-21T01:02:28.789Z,-5.45
2015-10-21T01:02:42.008Z,-5.46
2015-10-21T01:02:55.226Z,-5.43
2015-10-21T01:03:08.429Z,-5.46
2015-10-21T01:03:21.633Z,-5.46
2015-10-21T01:03:34.854Z,-5.42
2015-10-21T01:03:48.057Z,-5.51
2015-10-21T01:04:01.276Z,-5.45
2015-10-21T01:04:14.495Z,-5.43
2015-10-21T01:04:27.698Z,-5.49
2015-10-21T01:04:40.920Z,-5.49
2015-10-21T01:04:54.139Z,-5.46
2015-10-21T01:05:07.342Z,-5.42
2015-10-21T01:05:20.545Z,-5.45
2015-10-21T01:05:33.766Z,-5.39
2015-10-21T01:05:46.984Z,-5.49
2015-10-21T01:06:00.187Z,-5.49
2015-10-21T01:06:13.234Z,-5.46
2015-10-21T01:06:26.453Z,-5.36
2015-10-21T01:06:39.675Z,-5.39
2015-10-21T01:06:52.862Z,-5.33
2015-10-21T01:07:06.065Z,-5.36
2015-10-21T01:07:19.269Z,-5.38
2015-10-21T01:07:32.506Z,-5.29
2015-10-21T01:07:45.709Z,-5.38
2015-10-21T01:07:58.912Z,-5.29
2015-10-21T01:08:12.100Z,-5.31
2015-10-21T01:08:25.334Z,-5.27
2015-10-21T01:08:38.539Z,-5.27
2015-10-21T01:08:51.742Z,-5.27
2015-10-21T01:09:04.945Z,-5.29
2015-10-21T01:09:18.164Z,-5.27
2015-10-21T01:09:31.383Z,-5.22
2015-10-21T01:09:44.589Z,-5.14
2015-10-21T01:09:57.777Z,-5.24
2015-10-21T01:10:10.964Z,-5.17
2015-10-21T01:10:24.152Z,-5.18
2015-10-21T01:10:37.342Z,-5.17
2015-10-21T01:10:50.530Z,-5.1
2015-10-21T01:11:03.748Z,-5.09
2015-10-21T01:11:16.967Z,-5.03
2015-10-21T01:11:30.170Z,-5.05
2015-10-21T01:11:43.376Z,-5.05
2015-10-21T01:11:56.579Z,-5.06
2015-10-21T01:12:09.798Z,-5.03
2015-10-21T01:12:23.017Z,-5.05
2015-10-21T01:12:36.238Z,-5
2015-10-21T01:12:49.441Z,-4.92
2015-10-21T01:13:02.644Z,-4.98
2015-10-21T01:13:15.878Z,-5.02
2015-10-21T01:13:29.081Z,-5
2015-10-21T01:13:42.131Z,-4.91
2015-10-21T01:13:55.319Z,-4.98
2015-10-21T01:14:08.553Z,-5
2015-10-21T01:14:21.741Z,-4.96
2015-10-21T01:14:34.944Z,-4.95
2015-10-21T01:14:48.134Z,-4.95
2015-10-21T01:15:01.353Z,-4.99
2015-10-21T01:15:14.572Z,-4.96
2015-10-21T01:15:27.775Z,-5
2015-10-21T01:15:40.965Z,-4.98
2015-10-21T01:15:54.200Z,-4.92
2015-10-21T01:16:07.403Z,-4.91
2015-10-21T01:16:20.622Z,-4.88
2015-10-21T01:16:33.809Z,-4.96
2015-10-21T01:16:46.874Z,-4.87
2015-10-21T01:17:00.092Z,-4.88
2015-10-21T01:17:13.296Z,-4.91
2015-10-21T01:17:26.499Z,-4.92
2015-10-21T01:17:39.736Z,-4.89
2015-10-21T01:17:52.955Z,-4.85
2015-10-21T01:18:06.158Z,-4.88
2015-10-21T01:18:19.361Z,-4.87
2015-10-21T01:18:32.564Z,-4.84
2015-10-21T01:18:45.770Z,-4.85
2015-10-21T01:18:58.989Z,-4.81
2015-10-21T01:19:12.177Z,-4.81
2015-10-21T01:19:25.380Z,-4.88
2015-10-21T01:19:38.598Z,-4.88
2015-10-21T01:19:51.819Z,-4.87
2015-10-21T01:20:05.038Z,-4.91
2015-10-21T01:20:18.241Z,-4.87
2015-10-21T01:20:31.460Z,-4.87
2015-10-21T01:20:44.682Z,-4.87
2015-10-21T01:20:57.900Z,-4.96
2015-10-21T01:21:11.088Z,-4.96
2015-10-21T01:21:24.291Z,-4.92
2015-10-21T01:21:37.525Z,-4.96
2015-10-21T01:21:50.731Z,-5
2015-10-21T01:22:03.935Z,-4.92
2015-10-21T01:22:17.138Z,-4.96
2015-10-21T01:22:30.372Z,-4.92
2015-10-21T01:22:43.594Z,-4.98
2015-10-21T01:22:56.781Z,-4.99
2015-10-21T01:23:09.984Z,-4.89
2015-10-21T01:23:23.203Z,-4.96
2015-10-21T01:23:36.422Z,-5.06
2015-10-21T01:23:49.627Z,-4.99
2015-10-21T01:24:02.815Z,-5
2015-10-21T01:24:16.018Z,-5.02
2015-10-21T01:24:29.252Z,-4.99
2015-10-21T01:24:42.440Z,-5.17
2015-10-21T01:24:55.661Z,-5.08
2015-10-21T01:25:08.880Z,-5.08
2015-10-21T01:25:22.099Z,-5.1
2015-10-21T01:25:35.302Z,-5.13
2015-10-21T01:25:48.508Z,-5.08
2015-10-21T01:26:01.711Z,-5.17
2015-10-21T01:26:14.961Z,-5.13
2015-10-21T01:26:28.274Z,-5.14
2015-10-21T01:26:41.477Z,-5.24
2015-10-21T01:26:54.683Z,-5.18
2015-10-21T01:27:07.902Z,-5.19
2015-10-21T01:27:21.120Z,-5.19
2015-10-21T01:27:34.324Z,-5.27
2015-10-21T01:27:47.514Z,-5.25
2015-10-21T01:28:00.733Z,-5.19
2015-10-21T01:28:13.936Z,-5.21
2015-10-21T01:28:27.139Z,-5.18
2015-10-21T01:28:40.327Z,-5.19
2015-10-21T01:28:53.547Z,-5.24
2015-10-21T01:29:06.766Z,-5.25
2015-10-21T01:29:19.969Z,-5.22
2015-10-21T01:29:33.188Z,-5.24
2015-10-21T01:29:46.235Z,-5.18
2015-10-21T01:29:59.440Z,-5.27
2015-10-21T01:30:12.643Z,-5.22
2015-10-21T01:30:25.846Z,-5.28
2015-10-21T01:30:39.065Z,-5.27
2015-10-21T01:30:52.271Z,-5.21
2015-10-21T01:31:05.505Z,-5.19
2015-10-21T01:31:18.693Z,-5.21
2015-10-21T01:31:31.896Z,-5.24
2015-10-21T01:31:45.099Z,-5.19
2015-10-21T01:31:58.321Z,-5.19
2015-10-21T01:32:11.524Z,-5.21
2015-10-21T01:32:24.727Z,-5.17
2015-10-21T01:32:37.946Z,-5.17
2015-10-21T01:32:51.182Z,-5.19
2015-10-21T01:33:04.385Z,-5.17
2015-10-21T01:33:17.589Z,-5.19
2015-10-21T01:33:30.792Z,-5.17
2015-10-21T01:33:44.010Z,-5.13
2015-10-21T01:33:57.233Z,-5.17
2015-10-21T01:34:10.452Z,-5.17
2015-10-21T01:34:23.655Z,-5.17
2015-10-21T01:34:36.843Z,-5.13
2015-10-21T01:34:50.061Z,-5.18
2015-10-21T01:35:03.266Z,-5.17
2015-10-21T01:35:16.470Z,-5.17
2015-10-21T01:35:29.657Z,-5.19
2015-10-21T01:35:42.907Z,-5.17
2015-10-21T01:35:56.129Z,-5.18
2015-10-21T01:36:09.316Z,-5.24
2015-10-21T01:36:22.519Z,-5.25
2015-10-21T01:36:35.738Z,-5.24
2015-10-21T01:36:48.941Z,-5.28
2015-10-21T01:37:02.147Z,-5.27
2015-10-21T01:37:15.351Z,-5.28
2015-10-21T01:37:28.554Z,-5.27
2015-10-21T01:37:41.804Z,-5.27
2015-10-21T01:37:55.010Z,-5.25
2015-10-21T01:38:08.213Z,-5.35
2015-10-21T01:38:21.416Z,-5.25
2015-10-21T01:38:34.635Z,-5.27
2015-10-21T01:38:47.838Z,-5.25
2015-10-21T01:39:01.027Z,-5.22
2015-10-21T01:39:14.231Z,-5.28
2015-10-21T01:39:27.449Z,-5.29
2015-10-21T01:39:40.668Z,-5.22
2015-10-21T01:39:53.871Z,-5.27
2015-10-21T01:40:07.093Z,-5.25
2015-10-21T01:40:20.312Z,-5.29
2015-10-21T01:40:33.530Z,-5.29
2015-10-21T01:40:46.734Z,-5.28
2015-10-21T01:40:59.940Z,-5.31
2015-10-21T01:41:13.143Z,-5.25
2015-10-21T01:41:26.377Z,-5.24
2015-10-21T01:41:39.565Z,-5.29
2015-10-21T01:41:52.783Z,-5.29
2015-10-21T01:42:05.989Z,-5.33
2015-10-21T01:42:19.239Z,-5.38
2015-10-21T01:42:32.426Z,-5.31
2015-10-21T01:42:45.629Z,-5.28
2015-10-21T01:42:58.835Z,-5.33
2015-10-21T01:43:12.054Z,-5.27
2015-10-21T01:43:25.273Z,-5.29
2015-10-21T01:43:38.476Z,-5.28
2015-10-21T01:43:51.663Z,-5.29
2015-10-21T01:44:04.885Z,-5.33
2015-10-21T01:44:18.104Z,-5.39
2015-10-21T01:44:31.307Z,-5.38
2015-10-21T01:44:44.526Z,-5.38
2015-10-21T01:44:57.731Z,-5.36
2015-10-21T01:45:10.981Z,-5.38
2015-10-21T01:45:24.200Z,-5.33
2015-10-21T01:45:37.387Z,-5.46
2015-10-21T01:45:50.590Z,-5.42
2015-10-21T01:46:03.828Z,-5.42
2015-10-21T01:46:17.031Z,-5.49
2015-10-21T01:46:30.234Z,-5.53
2015-10-21T01:46:43.421Z,-5.56
2015-10-21T01:46:56.628Z,-5.51
2015-10-21T01:47:09.831Z,-5.56
2015-10-21T01:47:23.034Z,-5.51
2015-10-21T01:47:36.221Z,-5.61
2015-10-21T01:47:49.268Z,-5.61
2015-10-21T01:48:02.490Z,-5.6
2015-10-21T01:48:15.677Z,-5.61
2015-10-21T01:48:28.865Z,-5.66
2015-10-21T01:48:42.052Z,-5.63
2015-10-21T01:48:55.287Z,-5.61
2015-10-21T01:49:08.492Z,-5.58
2015-10-21T01:49:21.695Z,-5.71
2015-10-21T01:49:34.898Z,-5.74
2015-10-21T01:49:48.117Z,-5.74
2015-10-21T01:50:01.353Z,-5.74
2015-10-21T01:50:14.541Z,-5.72
2015-10-21T01:50:27.744Z,-5.75
2015-10-21T01:50:40.963Z,-5.82
2015-10-21T01:50:54.181Z,-5.84
2015-10-21T01:51:07.388Z,-5.9
2015-10-21T01:51:20.591Z,-5.92
2015-10-21T01:51:33.794Z,-5.89
2015-10-21T01:51:47.028Z,-5.97
2015-10-21T01:52:00.234Z,-5.99
2015-10-21T01:52:13.422Z,-5.95
2015-10-21T01:52:26.625Z,-5.9
2015-10-21T01:52:39.859Z,-5.89
2015-10-21T01:52:53.078Z,-5.86
2015-10-21T01:53:06.268Z,-5.86
2015-10-21T01:53:19.314Z,-5.92
2015-10-21T01:53:32.377Z,-5.92
2015-10-21T01:53:45.611Z,-5.95
2015-10-21T01:53:58.817Z,-5.84
2015-10-21T01:54:12.021Z,-5.92
2015-10-21T01:54:25.239Z,-5.84
2015-10-21T01:54:38.458Z,-5.89
2015-10-21T01:54:51.692Z,-6.02
2015-10-21T01:55:04.883Z,-5.96
2015-10-21T01:55:18.086Z,-5.99
2015-10-21T01:55:31.320Z,-5.95
2015-10-21T01:55:44.508Z,-5.92
2015-10-21T01:55:57.711Z,-5.95
2015-10-21T01:56:10.933Z,-5.86
2015-10-21T01:56:24.152Z,-5.95
2015-10-21T01:56:37.355Z,-5.97
2015-10-21T01:56:50.558Z,-6.02
2015-10-21T01:57:03.780Z,-5.99
2015-10-21T01:57:16.998Z,-5.95
2015-10-21T01:57:30.201Z,-5.97
2015-10-21T01:57:43.420Z,-5.96
2015-10-21T01:57:56.608Z,-5.92
2015-10-21T01:58:09.844Z,-6.08
2015-10-21T01:58:23.063Z,-6
2015-10-21T01:58:36.282Z,-6.08
2015-10-21T01:58:49.485Z,-6
2015-10-21T01:59:02.691Z,-6
2015-10-21T01:59:15.910Z,-6.02
2015-10-21T01:59:29.113Z,-5.99
2015-10-21T01:59:42.316Z,-6
2015-10-21T01:59:55.519Z,-5.99
2015-10-21T02:00:08.741Z,-6.07
2015-10-21T02:00:21.944Z,-6.02
2015-10-21T02:00:35.147Z,-5.99
2015-10-21T02:00:48.350Z,-5.96
2015-10-21T02:01:01.553Z,-6.05
2015-10-21T02:01:14.774Z,-5.95
2015-10-21T02:01:27.977Z,-5.96
2015-10-21T02:01:41.180Z,-5.95
2015-10-21T02:01:54.383Z,-6.02
2015-10-21T02:02:07.606Z,-5.95
2015-10-21T02:02:20.825Z,-6.07
2015-10-21T02:02:33.872Z,-5.97
2015-10-21T02:02:47.075Z,-5.92
2015-10-21T02:03:00.278Z,-5.96
2015-10-21T02:03:13.483Z,-6.05
2015-10-21T02:03:26.686Z,-5.95
2015-10-21T02:03:39.889Z,-6
2015-10-21T02:03:53.092Z,-6.02
2015-10-21T02:04:06.314Z,-6.03
2015-10-21T02:04:19.533Z,-6.03
2015-10-21T02:04:32.720Z,-6
2015-10-21T02:04:45.924Z,-6.03
2015-10-21T02:04:59.142Z,-6
2015-10-21T02:05:12.347Z,-6.03
2015-10-21T02:05:25.535Z,-6.03
2015-10-21T02:05:38.754Z,-5.96
2015-10-21T02:05:51.972Z,-6.11
2015-10-21T02:06:05.191Z,-6.11
2015-10-21T02:06:18.397Z,-6.1
2015-10-21T02:06:31.585Z,-6.11
2015-10-21T02:06:44.804Z,-6.1
2015-10-21T02:06:58.022Z,-6.1
2015-10-21T02:07:11.227Z,-6.1
2015-10-21T02:07:24.415Z,-6.14
2015-10-21T02:07:37.649Z,-6.1
2015-10-21T02:07:50.868Z,-6.11
2015-10-21T02:08:04.071Z,-6.11
2015-10-21T02:08:17.278Z,-6.15
2015-10-21T02:08:30.497Z,-6.1
2015-10-21T02:08:43.731Z,-6.11
2015-10-21T02:08:56.919Z,-6.1
2015-10-21T02:09:10.125Z,-6.13
2015-10-21T02:09:23.313Z,-6.15
2015-10-21T02:09:36.547Z,-6.15
2015-10-21T02:09:49.750Z,-6.18
2015-10-21T02:10:02.938Z,-6.13
2015-10-21T02:10:16.143Z,-6.11
2015-10-21T02:10:29.361Z,-6.17
2015-10-21T02:10:42.580Z,-6.21
2015-10-21T02:10:55.768Z,-6.21
2015-10-21T02:11:08.971Z,-6.26
2015-10-21T02:11:22.192Z,-6.18
2015-10-21T02:11:35.426Z,-6.24
2015-10-21T02:11:48.613Z,-6.26
2015-10-21T02:12:01.817Z,-6.15
2015-10-21T02:12:15.039Z,-6.17
2015-10-21T02:12:28.258Z,-6.11
2015-10-21T02:12:41.461Z,-6.2
2015-10-21T02:12:54.649Z,-6.2
2015-10-21T02:13:07.852Z,-6.2
2015-10-21T02:13:21.088Z,-6.2
2015-10-21T02:13:34.291Z,-6.2
2015-10-21T02:13:47.494Z,-6.23
2015-10-21T02:14:00.698Z,-6.21
2015-10-21T02:14:13.904Z,-6.18
2015-10-21T02:14:27.122Z,-6.28
2015-10-21T02:14:40.326Z,-6.23
2015-10-21T02:14:53.529Z,-6.26
2015-10-21T02:15:06.747Z,-6.21
2015-10-21T02:15:19.999Z,-6.28
2015-10-21T02:15:33.187Z,-6.24
2015-10-21T02:15:46.390Z,-6.23
2015-10-21T02:15:59.593Z,-6.24
2015-10-21T02:16:12.828Z,-6.29
2015-10-21T02:16:26.034Z,-6.2
2015-10-21T02:16:39.221Z,-6.13
2015-10-21T02:16:52.424Z,-6.24
2015-10-21T02:17:05.659Z,-6.26
2015-10-21T02:17:18.865Z,-6.2
2015-10-21T02:17:32.052Z,-6.13
2015-10-21T02:17:45.255Z,-6.13
2015-10-21T02:17:58.490Z,-6.21
2015-10-21T02:18:11.693Z,-6.13
2015-10-21T02:18:24.899Z,-6.13
2015-10-21T02:18:38.087Z,-6.13
2015-10-21T02:18:51.305Z,-6.14
2015-10-21T02:19:04.524Z,-6.15
2015-10-21T02:19:17.729Z,-6.13
2015-10-21T02:19:30.932Z,-6.1
2015-10-21T02:19:44.135Z,-6.13
2015-10-21T02:19:57.354Z,-6.14
2015-10-21T02:20:10.557Z,-6.23
2015-10-21T02:20:23.763Z,-6.2
2015-10-21T02:20:36.967Z,-6.17
2015-10-21T02:20:50.185Z,-6.26
2015-10-21T02:21:03.388Z,-6.23
2015-10-21T02:21:16.607Z,-6.17
2015-10-21T02:21:29.813Z,-6.18
2015-10-21T02:21:43.032Z,-6.28
2015-10-21T02:21:56.251Z,-6.26
2015-10-21T02:22:09.454Z,-6.2
2015-10-21T02:22:22.644Z,-6.18
2015-10-21T02:22:35.863Z,-6.26
2015-10-21T02:22:49.082Z,-6.26
2015-10-21T02:23:02.285Z,-6.17
2015-10-21T02:23:15.473Z,-6.23
2015-10-21T02:23:28.678Z,-6.17
2015-10-21T02:23:41.912Z,-6.13
2015-10-21T02:23:55.115Z,-6.23
2015-10-21T02:24:08.303Z,-6.11
2015-10-21T02:24:21.493Z,-6.17
2015-10-21T02:24:34.696Z,-6.11
2015-10-21T02:24:47.899Z,-6.14
2015-10-21T02:25:01.087Z,-6.14
2015-10-21T02:25:14.290Z,-6.26
2015-10-21T02:25:27.512Z,-6.15
2015-10-21T02:25:40.731Z,-6.08
2015-10-21T02:25:53.934Z,-6.23
2015-10-21T02:26:07.137Z,-6.13
2015-10-21T02:26:20.340Z,-6.14
2015-10-21T02:26:33.562Z,-6.26
2015-10-21T02:26:46.749Z,-6.23
2015-10-21T02:26:59.952Z,-6.28
2015-10-21T02:27:13.155Z,-6.23
2015-10-21T02:27:26.393Z,-6.17
2015-10-21T02:27:39.596Z,-6.14
2015-10-21T02:27:52.783Z,-6.14
2015-10-21T02:28:05.987Z,-6.11
2015-10-21T02:28:19.205Z,-6.1
2015-10-21T02:28:32.426Z,-6.13
2015-10-21T02:28:45.614Z,-6.24
2015-10-21T02:28:58.817Z,-6.17
2015-10-21T02:29:12.035Z,-6.26
2015-10-21T02:29:25.256Z,-6.18
2015-10-21T02:29:38.459Z,-6.15
2015-10-21T02:29:51.662Z,-6.15
2015-10-21T02:30:04.881Z,-6.13
2015-10-21T02:30:18.100Z,-6.14
2015-10-21T02:30:31.323Z,-6.14
2015-10-21T02:30:44.510Z,-6.15
2015-10-21T02:30:57.713Z,-6.13
2015-10-21T02:31:10.948Z,-6.14
2015-10-21T02:31:24.135Z,-6.1
2015-10-21T02:31:37.341Z,-6.14
2015-10-21T02:31:50.544Z,-6.1
2015-10-21T02:32:03.763Z,-6.13
2015-10-21T02:32:16.966Z,-6.15
2015-10-21T02:32:30.171Z,-6.1
2015-10-21T02:32:43.375Z,-6.03
2015-10-21T02:32:56.578Z,-6.03
2015-10-21T02:33:09.828Z,-6.1
2015-10-21T02:33:23.031Z,-6.15
2015-10-21T02:33:36.221Z,-6.08
2015-10-21T02:33:49.424Z,-5.97
2015-10-21T02:34:02.643Z,-6
2015-10-21T02:34:15.846Z,-6.11
2015-10-21T02:34:29.051Z,-5.99
2015-10-21T02:34:42.255Z,-6
2015-10-21T02:34:55.520Z,-6.02
2015-10-21T02:35:08.723Z,-6.03
2015-10-21T02:35:21.926Z,-6.02
2015-10-21T02:35:35.133Z,-6.02
2015-10-21T02:35:48.351Z,-6.03
2015-10-21T02:36:01.570Z,-6.02
2015-10-21T02:36:14.773Z,-5.93
2015-10-21T02:36:27.961Z,-6.07
2015-10-21T02:36:41.182Z,-5.97
2015-10-21T02:36:54.401Z,-6.07
2015-10-21T02:37:07.589Z,-6
2015-10-21T02:37:20.792Z,-6.02
2015-10-21T02:37:33.982Z,-6.08
2015-10-21T02:37:47.217Z,-5.96
2015-10-21T02:38:00.420Z,-6
2015-10-21T02:38:13.639Z,-6.05
2015-10-21T02:38:26.842Z,-5.95
2015-10-21T02:38:40.062Z,-6.05
2015-10-21T02:38:53.281Z,-6.1
2015-10-21T02:39:06.484Z,-5.97
2015-10-21T02:39:19.687Z,-6.1
2015-10-21T02:39:32.909Z,-6
2015-10-21T02:39:46.128Z,-6.02
2015-10-21T02:39:59.331Z,-6.03
2015-10-21T02:40:12.534Z,-6.02
2015-10-21T02:40:25.722Z,-5.97
2015-10-21T02:40:38.959Z,-6.02
2015-10-21T02:40:52.147Z,-5.96
2015-10-21T02:41:05.350Z,-6.02
2015-10-21T02:41:17.818Z,-6
2015-10-21T02:41:31.037Z,-6.11
2015-10-21T02:41:44.258Z,-6.05
2015-10-21T02:41:57.461Z,-5.99
2015-10-21T02:42:10.664Z,-6.02
2015-10-21T02:42:23.867Z,-6.18
2015-10-21T02:42:37.105Z,-6.13
2015-10-21T02:42:50.308Z,-6.13
2015-10-21T02:43:03.527Z,-6.13
2015-10-21T02:43:16.730Z,-6.08
2015-10-21T02:43:29.948Z,-6.14
2015-10-21T02:43:43.154Z,-6.15
2015-10-21T02:43:56.357Z,-6.13
2015-10-21T02:44:09.575Z,-6.15
2015-10-21T02:44:22.794Z,-6.13
2015-10-21T02:44:36.000Z,-6.15
2015-10-21T02:44:49.188Z,-6.15
2015-10-21T02:45:02.391Z,-6.2
2015-10-21T02:45:15.610Z,-6.26
2015-10-21T02:45:28.828Z,-6.17
2015-10-21T02:45:42.036Z,-6.14
2015-10-21T02:45:55.239Z,-6.21
2015-10-21T02:46:08.457Z,-6.26
2015-10-21T02:46:21.676Z,-6.24
2015-10-21T02:46:34.864Z,-6.24
2015-10-21T02:46:48.084Z,-6.23
2015-10-21T02:47:01.288Z,-6.26
2015-10-21T02:47:14.522Z,-6.26
2015-10-21T02:47:27.725Z,-6.29
2015-10-21T02:47:40.930Z,-6.32
2015-10-21T02:47:54.149Z,-6.26
2015-10-21T02:48:07.368Z,-6.32
2015-10-21T02:48:20.571Z,-6.28
2015-10-21T02:48:33.774Z,-6.34
2015-10-21T02:48:46.980Z,-6.28
2015-10-21T02:49:00.183Z,-6.29
2015-10-21T02:49:13.402Z,-6.32
2015-10-21T02:49:26.605Z,-6.34
2015-10-21T02:49:39.811Z,-6.35
2015-10-21T02:49:53.014Z,-6.35
2015-10-21T02:50:06.233Z,-6.29
2015-10-21T02:50:19.436Z,-6.38
2015-10-21T02:50:32.624Z,-6.31
2015-10-21T02:50:45.845Z,-6.36
2015-10-21T02:50:59.064Z,-6.26
2015-10-21T02:51:12.252Z,-6.35